KCMI/CMI METAR and TAF weather

Enter ICAO airport designator
Station Type Date Time Source
KCMI METAR 2020/01/22 20:53 UTC NOAA

KCMI 222053Z 16013KT 10SM CLR 00/M05 A3019 RMK AO2 SLP231 T00001050 56019


Station Type Date Time Source
KCMI Decoded METAR 2020/01/22 20:53 UTC NOAA

UNIV OF ILLINOIS-WILLARD, IL, United States (KCMI) 40-02N 088-16W 228M
Jan 22, 2020 - 03:53 PM EST / 2020.01.22 2053 UTC
Wind: from the SSE (160 degrees) at 15 MPH (13 KT):0
Visibility: 10 mile(s):0
Sky conditions: clear
Temperature: 32.0 F (0.0 C)
Windchill: 21 F (-6 C):1
Dew Point: 23.0 F (-5.0 C)
Relative Humidity: 69%
Pressure (altimeter): 30.19 in. Hg (1022 hPa)
Pressure tendency: 0.06 inches (1.9 hPa) lower than three hours ago
ob: KCMI 222053Z 16013KT 10SM CLR 00/M05 A3019 RMK AO2 SLP231 T00001050 56019
cycle: 21

Station Type Date Time Source
KCMI TAF 2020/01/22 18:48 UTC NOAA

TAF KCMI 221747Z 2218/2318 18016G22KT P6SM OVC150
FM230200 18013KT P6SM SCT050 OVC100
FM230600 18011KT P6SM VCSH OVC050
FM230800 18010KT 4SM -SN BR OVC025
FM231100 17010KT 3SM -SN BR OVC018
FM231300 17010KT 3SM -SN BR OVC012
FM231600 17011KT 4SM -RASN BR OVC009

Example: see airport list